• Join FlightAware (Why Join?)
  • Login
  • US Flag 
02:46PM EDT


 

Airport Tracker/Info


-or-


 

Live Flight TrackerFlight Track Log ✈ N983CA ✈ 21-Apr-2013 ✈ KSAN - KSFO

Flight Track Log - Related Links

Times and Time Zones

All times are in EDT time to prevent confusion due to time zone crossing. See the N983CA flight status page for this flight to view local times or setup timezone preferences in your user account.

Time Position Orientation Groundspeed Altitude Reporting Facility
EDT Latitude Longitude Course Direction KTS MPH feet Rate Location/Type
12:22AM 32.7450 -117.2181 299° West 161 185 1,400  Level Los Angeles Center
12:23AM 32.7725 -117.2781 299° West 213 245 3,200 2,220 Climbing Los Angeles Center
12:24AM 32.8200 -117.3519 307° West 263 303 6,000 2,700 Climbing Los Angeles Center
12:25AM 32.8725 -117.4200 313° West 278 320 8,800 2,760 Climbing Los Angeles Center
12:26AM 32.9369 -117.5053 312° West 288 331 11,700 2,400 Climbing Los Angeles Center
12:27AM 32.9931 -117.5806 312° West 300 345 13,700 1,920 Climbing Los Angeles Center
12:28AM 33.0503 -117.6594 311° West 312 359 15,700 1,800 Climbing Los Angeles Center
12:29AM 33.1108 -117.7389 312° West 320 368 17,400 1,560 Climbing Los Angeles Center
12:30AM 33.1719 -117.8222 311° West 331 381 18,900 1,500 Climbing Los Angeles Center
12:31AM 33.2111 -117.9261 294° West 344 396 20,500 1,380 Climbing Los Angeles Center
12:32AM 33.2464 -118.0336 291° West 346 398 21,800 1,320 Climbing Los Angeles Center
12:33AM 33.3036 -118.1308 305° West 370 426 23,300 1,320 Climbing Los Angeles Center
12:34AM 33.3692 -118.2197 311° West 359 413 24,600 1,080 Climbing Los Angeles Center
12:35AM 33.4367 -118.3103 312° West 363 418 25,600 660 Climbing Los Angeles Center
12:37AM 33.5214 -118.4250 312° West 378 435 26,000 180 Climbing Los Angeles Center
12:38AM 33.5992 -118.5275 312° West 406 467 26,000  Level Los Angeles Center
12:39AM 33.6767 -118.6322 312° West 414 476 26,000  Level Los Angeles Center
12:40AM 33.7517 -118.7328 312° West 406 467 26,000  Level Los Angeles Center
12:41AM 33.8258 -118.8325 312° West 400 460 26,000  Level Los Angeles Center
12:42AM 33.9006 -118.9347 311° West 403 464 26,000  Level Los Angeles Center
12:43AM 33.9753 -119.0350 312° West 403 464 26,000  Level Los Angeles Center
12:44AM 34.0497 -119.1381 311° West 406 467 26,000  Level Los Angeles Center
12:45AM 34.1244 -119.2408 311° West 407 468 26,000  Level Los Angeles Center
12:46AM 34.2036 -119.3381 315° West 406 467 26,000  Level Los Angeles Center
12:47AM 34.2869 -119.4319 317° Northwest 409 471 26,000  Level Los Angeles Center
12:48AM 34.3706 -119.5250 317° Northwest 409 471 26,000  Level Los Angeles Center
12:49AM 34.4708 -119.6381 317° Northwest 410 472 26,000  Level Los Angeles Center
12:50AM 34.5533 -119.7331 317° Northwest 409 471 26,000  Level Los Angeles Center
12:51AM 34.6364 -119.8244 318° Northwest 410 472 26,000  Level Los Angeles Center
12:52AM 34.7186 -119.9194 316° Northwest 408 470 26,000  Level Los Angeles Center
12:53AM 34.7983 -120.0114 317° Northwest 397 457 26,000  Level Los Angeles Center
12:54AM 34.8767 -120.1000 317° Northwest 402 463 26,000  Level Los Angeles Center
12:55AM 34.9619 -120.1981 317° Northwest 420 483 26,000  Level Los Angeles Center
12:56AM 35.0667 -120.3189 317° Northwest 433 498 26,000  Level Los Angeles Center
12:57AM 35.1556 -120.4222 316° Northwest 442 509 26,000  Level Los Angeles Center
12:58AM 35.2450 -120.5264 316° Northwest 446 513 26,000  Level Los Angeles Center
12:59AM 35.3333 -120.6314 316° Northwest 445 512 26,000  Level Los Angeles Center
01:00AM 35.4217 -120.7336 317° Northwest 440 506 26,000  Level Los Angeles Center
01:00AM 35.4514 -120.7697 315° West 436 502 26,000  Level Oakland Center
01:01AM 35.5386 -120.8728 316° Northwest 433 498 26,000  Level Oakland Center
01:02AM 35.6158 -120.9631 316° Northwest 381 438 26,000  Level Oakland Center
01:03AM 35.6889 -121.0469 317° Northwest 361 415 26,000  Level Oakland Center
01:04AM 35.7703 -121.1161 325° Northwest 352 405 26,000  Level Oakland Center
01:05AM 35.8506 -121.1850 325° Northwest 349 402 26,000  Level Oakland Center
01:06AM 35.9308 -121.2536 325° Northwest 349 402 26,000  Level Oakland Center
01:07AM 36.0133 -121.3242 325° Northwest 357 411 26,000  Level Oakland Center
01:08AM 36.0953 -121.3936 326° Northwest 356 410 26,000  Level Oakland Center
01:09AM 36.1914 -121.4786 324° Northwest 351 404 26,000 -600 Level Oakland Center
01:10AM 36.2728 -121.5511 324° Northwest 357 411 24,800 -1,380 Descending Oakland Center
01:11AM 36.3586 -121.6239 326° Northwest 367 422 23,300 -1,500 Descending Oakland Center
01:12AM 36.4417 -121.6989 324° Northwest 366 421 21,800 -1,620 Descending Oakland Center
01:13AM 36.5000 -121.7500 325° Northwest 374 430 20,600 -1,080 Descending Northern Cal TRACON
01:14AM 36.5833 -121.8167 327° Northwest 353 406 20,000 -1,140 Descending Northern Cal TRACON
01:15AM 36.6667 -121.9000 321° Northwest 354 407 18,300 -1,680 Descending Northern Cal TRACON
01:16AM 36.7500 -121.9667 327° Northwest 334 384 16,500 -1,800 Descending Northern Cal TRACON
01:17AM 36.8333 -121.9833 351° North 335 386 14,700 -1,860 Descending Northern Cal TRACON
01:18AM 36.9333 -122.0167 345° North 331 381 12,900 -1,620 Descending Northern Cal TRACON
01:19AM 36.9372 -122.0131 37° Northeast 331 381 12,700 -1,560 Descending Oakland Center
01:20AM 37.0253 -122.0356 348° North 325 374 10,900 -1,380 Descending Oakland Center
01:21AM 37.1206 -122.0614 348° North 298 343 10,000 -480 Descending Oakland Center
01:22AM 37.1950 -122.0825 347° North 279 321 10,000 -600 Level Oakland Center
01:23AM 37.2581 -122.0992 348° North 241 277 8,900 -1,200 Descending Oakland Center
01:24AM 37.3236 -122.1092 353° North 234 269 7,700 -1,200 Descending Oakland Center
01:25AM 37.3906 -122.1039 North 240 276 6,500 -1,080 Descending Oakland Center
01:25AM 37.4333 -122.1000 North 222 255 5,900 -720 Descending Northern Cal TRACON
01:26AM 37.4833 -122.0833 15° North 176 203 5,300 -900 Descending Northern Cal TRACON
01:27AM 37.5167 -122.1167 322° Northwest 180 207 4,100 -1,080 Descending Northern Cal TRACON
01:28AM 37.5228 -122.1311 298° West 179 206 3,900 -960 Descending Oakland Center
01:29AM 37.5378 -122.1922 287° West 181 208 2,800 -1,020 Descending Oakland Center
01:30AM 37.5606 -122.2453 298° West 178 205 1,900 -840 Descending Oakland Center
01:31AM 37.5828 -122.2931 300° West 169 194 1,100 -720 Descending Oakland Center
01:32AM 37.5992 -122.3328 298° West 149 171 500 -480 Descending Oakland Center
01:33AM 37.6183 -122.3786 298° West 142 163 200 -300 Descending Oakland Center